createdAt,value
2023-05-11T00:00:55.347Z,98849.56
2023-05-11T00:03:28.371Z,98850.34
2023-05-11T00:06:01.505Z,98847.66
2023-05-11T00:08:34.526Z,98842.84
2023-05-11T00:11:09.373Z,98844.63
2023-05-11T00:13:43.928Z,98841.16
2023-05-11T00:16:17.083Z,98844.41
2023-05-11T00:18:50.159Z,98836.44
2023-05-11T00:21:23.756Z,98844.44
2023-05-11T00:23:57.000Z,98839.94
2023-05-11T00:26:29.833Z,98842.06
2023-05-11T00:29:04.143Z,98839.16
2023-05-11T00:31:37.190Z,98835.56
2023-05-11T00:34:10.161Z,98834.22
2023-05-11T00:36:43.238Z,98836.13
2023-05-11T00:39:17.592Z,98834.78
2023-05-11T00:41:50.511Z,98833.88
2023-05-11T00:44:24.616Z,98830.88
2023-05-11T00:46:58.992Z,98831.09
2023-05-11T00:49:32.223Z,98836.22
2023-05-11T00:52:05.450Z,98831.19
2023-05-11T00:54:38.345Z,98831.97
2023-05-11T00:57:11.114Z,98826.84
2023-05-11T00:59:45.240Z,98837.47
2023-05-11T01:02:18.537Z,98834.66
2023-05-11T01:04:51.878Z,98829.63
2023-05-11T01:07:32.747Z,98834.44
2023-05-11T01:10:16.361Z,98830.53
2023-05-11T01:12:56.933Z,98835.75
2023-05-11T01:15:37.183Z,98842.41
2023-05-11T01:18:21.164Z,98835.78
2023-05-11T01:20:58.525Z,98836.72
2023-05-11T01:23:45.638Z,98833.88
2023-05-11T01:26:46.359Z,98842.88
2023-05-11T01:29:46.055Z,98838.34
2023-05-11T01:32:24.672Z,98838.75
2023-05-11T01:35:07.247Z,98836.53
2023-05-11T01:37:47.128Z,98839.41
2023-05-11T01:40:25.594Z,98832.72
2023-05-11T01:43:02.429Z,98836.44
2023-05-11T01:45:40.053Z,98839.66
2023-05-11T01:48:18.233Z,98832.84
2023-05-11T01:50:52.413Z,98835.53
2023-05-11T01:53:28.003Z,98836.53
2023-05-11T01:56:05.484Z,98835.56
2023-05-11T01:58:41.594Z,98832.84
2023-05-11T02:01:17.300Z,98834.91
2023-05-11T02:03:54.698Z,98839.25
2023-05-11T02:06:30.586Z,98837.91
2023-05-11T02:09:04.245Z,98835.00
2023-05-11T02:11:40.442Z,98837.25
2023-05-11T02:14:14.029Z,98838.34
2023-05-11T02:16:49.283Z,98847.22
2023-05-11T02:19:23.491Z,98841.81
2023-05-11T02:21:58.176Z,98840.81
2023-05-11T02:24:32.127Z,98834.75
2023-05-11T02:27:05.536Z,98844.94
2023-05-11T02:29:38.385Z,98834.09
2023-05-11T02:32:16.920Z,98834.28
2023-05-11T02:34:57.899Z,98836.53
2023-05-11T02:37:32.008Z,98836.75
2023-05-11T02:40:11.912Z,98833.06
2023-05-11T02:42:47.039Z,98834.09
2023-05-11T02:45:21.263Z,98838.09
2023-05-11T02:47:56.700Z,98821.66
2023-05-11T02:50:38.503Z,98825.88
2023-05-11T02:53:16.397Z,98830.94
2023-05-11T02:55:52.312Z,98834.41
2023-05-11T02:58:25.834Z,98829.34
2023-05-11T03:01:08.859Z,98825.47
2023-05-11T03:03:42.401Z,98836.41
2023-05-11T03:06:17.114Z,98829.31
2023-05-11T03:08:50.610Z,98829.44
2023-05-11T03:11:24.760Z,98830.41
2023-05-11T03:13:58.762Z,98827.09
2023-05-11T03:16:33.475Z,98832.50
2023-05-11T03:19:08.607Z,98825.47
2023-05-11T03:21:43.094Z,98831.63
2023-05-11T03:24:17.505Z,98831.69
2023-05-11T03:26:52.748Z,98829.50
2023-05-11T03:29:27.509Z,98833.41
2023-05-11T03:32:00.718Z,98836.75
2023-05-11T03:34:35.888Z,98819.97
2023-05-11T03:37:13.558Z,98822.47
2023-05-11T03:39:51.292Z,98828.09
2023-05-11T03:42:27.037Z,98820.53
2023-05-11T03:45:01.644Z,98823.00
2023-05-11T03:47:36.003Z,98826.59
2023-05-11T03:50:10.813Z,98833.63
2023-05-11T03:52:45.765Z,98834.72
2023-05-11T03:55:18.758Z,98829.25
2023-05-11T03:57:52.872Z,98819.56
2023-05-11T04:00:25.838Z,98812.50
2023-05-11T04:02:59.384Z,98826.66
2023-05-11T04:05:32.227Z,98811.81
2023-05-11T04:08:08.985Z,98813.28
2023-05-11T04:10:41.777Z,98816.06
2023-05-11T04:13:14.608Z,98815.41
2023-05-11T04:15:48.436Z,98817.31
2023-05-11T04:18:21.599Z,98822.09
2023-05-11T04:20:54.395Z,98823.16
2023-05-11T04:23:28.835Z,98829.94
2023-05-11T04:26:04.810Z,98825.81
2023-05-11T04:28:37.551Z,98832.09
2023-05-11T04:31:10.492Z,98829.25
2023-05-11T04:33:43.737Z,98834.53
2023-05-11T04:36:16.718Z,98817.72
2023-05-11T04:38:51.183Z,98818.22
2023-05-11T04:41:24.042Z,98815.41
2023-05-11T04:43:57.618Z,98819.16
2023-05-11T04:46:30.715Z,98821.09
2023-05-11T04:49:07.426Z,98829.88
2023-05-11T04:51:42.400Z,98831.75
2023-05-11T04:54:19.153Z,98831.00
2023-05-11T04:56:52.359Z,98835.25
2023-05-11T04:59:25.653Z,98832.19
2023-05-11T05:01:58.567Z,98839.59
2023-05-11T05:04:31.801Z,98841.25
2023-05-11T05:07:06.404Z,98850.59
2023-05-11T05:09:42.504Z,98852.00
2023-05-11T05:12:17.667Z,98841.34
2023-05-11T05:14:50.508Z,98852.06
2023-05-11T05:17:23.720Z,98850.44
2023-05-11T05:19:58.088Z,98856.38
2023-05-11T05:22:31.503Z,98855.66
2023-05-11T05:25:06.451Z,98856.78
2023-05-11T05:27:39.253Z,98857.13
2023-05-11T05:30:15.350Z,98854.22
2023-05-11T05:32:48.379Z,98853.38
2023-05-11T05:35:21.486Z,98857.94
2023-05-11T05:37:54.572Z,98856.19
2023-05-11T05:40:29.639Z,98848.91
2023-05-11T05:43:02.929Z,98858.81
2023-05-11T05:45:36.148Z,98859.59
2023-05-11T05:48:10.202Z,98857.00
2023-05-11T05:50:43.434Z,98867.78
2023-05-11T05:53:16.325Z,98862.75
2023-05-11T05:55:51.427Z,98865.63
2023-05-11T05:58:28.550Z,98863.47
2023-05-11T06:01:02.574Z,98868.03
2023-05-11T06:03:39.433Z,98871.06
2023-05-11T06:06:12.722Z,98875.78
2023-05-11T06:08:51.711Z,98872.47
2023-05-11T06:11:39.296Z,98884.03
2023-05-11T06:14:12.518Z,98878.97
2023-05-11T06:16:49.990Z,98880.88
2023-05-11T06:19:33.401Z,98879.69
2023-05-11T06:22:08.162Z,98876.63
2023-05-11T06:24:50.504Z,98878.78
2023-05-11T06:27:48.173Z,98873.34
2023-05-11T06:30:22.141Z,98873.25
2023-05-11T06:33:13.503Z,98879.09
2023-05-11T06:35:51.671Z,98874.53
2023-05-11T06:38:40.577Z,98872.25
2023-05-11T06:41:21.331Z,98873.34
2023-05-11T06:44:12.719Z,98871.84
2023-05-11T06:46:51.822Z,98878.75
2023-05-11T06:49:30.789Z,98870.69
2023-05-11T06:52:09.297Z,98870.91
2023-05-11T06:55:03.198Z,98881.41
2023-05-11T07:01:00.192Z,98875.03
2023-05-11T07:03:41.281Z,98875.19
2023-05-11T07:06:20.902Z,98873.81
2023-05-11T07:09:10.437Z,98878.34
2023-05-11T07:11:59.557Z,98881.72
2023-05-11T07:14:39.642Z,98879.66
2023-05-11T07:17:44.727Z,98888.31
2023-05-11T07:21:03.804Z,98885.06
2023-05-11T07:23:43.187Z,98893.28
2023-05-11T07:26:35.364Z,98896.91
2023-05-11T07:29:32.636Z,98891.53
2023-05-11T07:32:31.166Z,98895.19
2023-05-11T07:35:32.979Z,98899.34
2023-05-11T07:38:15.727Z,98903.25
2023-05-11T07:41:20.026Z,98891.50
2023-05-11T07:44:39.219Z,98900.94
2023-05-11T07:47:25.561Z,98896.34
2023-05-11T07:50:41.585Z,98901.22
2023-05-11T07:53:30.561Z,98896.81
2023-05-11T07:56:15.270Z,98902.16
2023-05-11T07:59:04.863Z,98897.00
2023-05-11T08:02:12.344Z,98888.50
2023-05-11T08:05:28.820Z,98888.75
2023-05-11T08:08:19.449Z,98896.28
2023-05-11T08:10:57.876Z,98891.50
2023-05-11T08:13:38.665Z,98886.63
2023-05-11T08:16:30.429Z,98891.75
2023-05-11T08:19:06.822Z,98894.81
2023-05-11T08:21:41.945Z,98887.03
2023-05-11T08:24:15.603Z,98894.28
2023-05-11T08:26:49.178Z,98891.88
2023-05-11T08:29:22.873Z,98896.94
2023-05-11T08:32:07.769Z,98894.03
2023-05-11T08:34:41.401Z,98888.75
2023-05-11T08:37:18.552Z,98885.84
2023-05-11T08:39:51.961Z,98893.38
2023-05-11T08:42:26.482Z,98891.34
2023-05-11T08:45:00.440Z,98880.81
2023-05-11T08:47:34.716Z,98885.13
2023-05-11T08:50:08.897Z,98894.56
2023-05-11T08:52:43.984Z,98893.47
2023-05-11T08:55:17.655Z,98888.63
2023-05-11T08:57:58.803Z,98896.81
2023-05-11T09:00:32.682Z,98895.78
2023-05-11T09:03:08.445Z,98888.66
2023-05-11T09:05:42.790Z,98893.44
2023-05-11T09:08:19.899Z,98885.50
2023-05-11T09:10:53.973Z,98890.06
2023-05-11T09:13:27.350Z,98891.69
2023-05-11T09:16:00.651Z,98882.47
2023-05-11T09:18:33.815Z,98880.28
2023-05-11T09:21:08.278Z,98890.34
2023-05-11T09:23:42.954Z,98884.78
2023-05-11T09:26:16.719Z,98881.91
2023-05-11T09:29:02.492Z,98885.38
2023-05-11T09:31:41.954Z,98879.31
2023-05-11T09:34:20.385Z,98889.09
2023-05-11T09:36:55.149Z,98882.56
2023-05-11T09:39:41.684Z,98890.19
2023-05-11T09:42:23.024Z,98889.94
2023-05-11T09:44:58.130Z,98886.16
2023-05-11T09:47:40.979Z,98889.56
2023-05-11T09:50:25.841Z,98890.69
2023-05-11T09:52:59.750Z,98888.06
2023-05-11T09:55:34.354Z,98878.34
2023-05-11T09:58:10.160Z,98884.13
2023-05-11T10:00:51.468Z,98874.50
2023-05-11T10:03:26.354Z,98886.34
2023-05-11T10:06:02.062Z,98873.06
2023-05-11T10:08:35.897Z,98877.16
2023-05-11T10:11:10.661Z,98881.66
2023-05-11T10:13:45.455Z,98874.53
2023-05-11T10:16:21.751Z,98874.84
2023-05-11T10:19:07.154Z,98871.88
2023-05-11T10:21:43.954Z,98878.06
2023-05-11T10:24:21.162Z,98870.56
2023-05-11T10:26:59.193Z,98870.56
2023-05-11T10:29:39.599Z,98865.63
2023-05-11T10:32:14.804Z,98866.47
2023-05-11T10:34:50.296Z,98863.34
2023-05-11T10:37:24.545Z,98860.19
2023-05-11T10:39:59.500Z,98857.97
2023-05-11T10:43:08.715Z,98868.47
2023-05-11T10:45:51.225Z,98866.16
2023-05-11T10:48:57.565Z,98863.09
2023-05-11T10:52:13.595Z,98852.34
2023-05-11T10:54:58.347Z,98853.25
2023-05-11T10:58:00.095Z,98862.75
2023-05-11T11:01:30.430Z,98862.91
2023-05-11T11:04:07.425Z,98854.69
2023-05-11T11:07:17.456Z,98860.56
2023-05-11T11:10:19.093Z,98860.59
2023-05-11T11:13:25.127Z,98850.94
2023-05-11T11:16:34.211Z,98856.53
2023-05-11T11:19:28.970Z,98859.41
2023-05-11T11:22:04.270Z,98854.66
2023-05-11T11:24:47.949Z,98848.41
2023-05-11T11:27:41.229Z,98849.94
2023-05-11T11:30:20.582Z,98852.81
2023-05-11T11:32:56.368Z,98853.78
2023-05-11T11:35:51.890Z,98849.78
2023-05-11T11:38:30.399Z,98861.19
2023-05-11T11:41:04.043Z,98849.53
2023-05-11T11:43:47.507Z,98851.28
2023-05-11T11:46:29.104Z,98853.66
2023-05-11T11:49:10.456Z,98845.03
2023-05-11T11:51:43.979Z,98853.47
2023-05-11T11:54:38.365Z,98857.47
2023-05-11T11:57:51.358Z,98852.13
2023-05-11T12:00:26.625Z,98861.19
2023-05-11T12:03:09.342Z,98853.94
2023-05-11T12:05:47.415Z,98848.25
2023-05-11T12:08:32.548Z,98848.34
2023-05-11T12:11:12.171Z,98837.47
2023-05-11T12:14:08.701Z,98848.34
2023-05-11T12:17:01.727Z,98855.28
2023-05-11T12:19:35.516Z,98847.06
2023-05-11T12:22:10.805Z,98849.97
2023-05-11T12:24:44.490Z,98844.94
2023-05-11T12:27:19.822Z,98850.94
2023-05-11T12:30:07.709Z,98854.13
2023-05-11T12:32:42.956Z,98848.97
2023-05-11T12:35:28.695Z,98847.84
2023-05-11T12:38:03.214Z,98851.72
2023-05-11T12:40:36.690Z,98853.03
2023-05-11T12:43:18.649Z,98848.22
2023-05-11T12:45:52.308Z,98841.72
2023-05-11T12:48:25.386Z,98846.91
2023-05-11T12:50:58.512Z,98844.22
2023-05-11T12:53:36.996Z,98840.50
2023-05-11T12:56:09.883Z,98845.34
2023-05-11T12:58:44.542Z,98840.91
2023-05-11T13:01:17.494Z,98844.53
2023-05-11T13:03:51.291Z,98842.97
2023-05-11T13:06:24.206Z,98838.47
2023-05-11T13:08:57.199Z,98837.91
2023-05-11T13:11:30.295Z,98829.69
2023-05-11T13:14:17.589Z,98835.81
2023-05-11T13:16:55.003Z,98836.84
2023-05-11T13:19:29.602Z,98835.81
2023-05-11T13:22:02.421Z,98822.59
2023-05-11T13:24:35.386Z,98840.72
2023-05-11T13:27:08.452Z,98828.47
2023-05-11T13:29:42.672Z,98832.22
2023-05-11T13:32:15.767Z,98834.03
2023-05-11T13:34:48.892Z,98823.00
2023-05-11T13:37:22.057Z,98823.59
2023-05-11T13:39:54.989Z,98822.38
2023-05-11T13:42:27.816Z,98830.91
2023-05-11T13:45:02.344Z,98821.28
2023-05-11T13:47:36.035Z,98819.81
2023-05-11T13:50:10.374Z,98817.06
2023-05-11T13:52:43.783Z,98813.44
2023-05-11T13:55:16.706Z,98806.41
2023-05-11T13:57:49.721Z,98808.41
2023-05-11T14:00:24.219Z,98808.53
2023-05-11T14:02:58.115Z,98811.75
2023-05-11T14:05:31.456Z,98805.28
2023-05-11T14:08:04.817Z,98813.94
2023-05-11T14:10:37.654Z,98807.81
2023-05-11T14:13:10.631Z,98805.09
2023-05-11T14:15:45.158Z,98802.16
2023-05-11T14:18:18.341Z,98793.69
2023-05-11T14:20:52.014Z,98796.81
2023-05-11T14:23:25.027Z,98795.31
2023-05-11T14:25:58.264Z,98792.22
2023-05-11T14:28:31.298Z,98788.84
2023-05-11T14:31:06.139Z,98791.84
2023-05-11T14:33:40.472Z,98800.75
2023-05-11T14:36:14.082Z,98787.06
2023-05-11T14:38:47.472Z,98792.63
2023-05-11T14:41:21.092Z,98790.22
2023-05-11T14:43:53.799Z,98782.09
2023-05-11T14:46:28.146Z,98780.28
2023-05-11T14:49:01.028Z,98779.72
2023-05-11T14:51:33.790Z,98778.47
2023-05-11T14:54:07.106Z,98773.63
2023-05-11T14:56:40.185Z,98783.28
2023-05-11T14:59:13.117Z,98778.03
2023-05-11T15:01:47.368Z,98774.94
2023-05-11T15:04:20.637Z,98777.09
2023-05-11T15:06:53.651Z,98768.56
2023-05-11T15:09:26.426Z,98780.22
2023-05-11T15:11:59.763Z,98782.50
2023-05-11T15:14:32.824Z,98780.34
2023-05-11T15:17:07.085Z,98781.34
2023-05-11T15:19:40.578Z,98782.47
2023-05-11T15:22:14.040Z,98776.38
2023-05-11T15:24:46.859Z,98777.94
2023-05-11T15:27:21.103Z,98785.69
2023-05-11T15:29:53.932Z,98780.41
2023-05-11T15:32:28.345Z,98776.38
2023-05-11T15:35:01.550Z,98777.00
2023-05-11T15:37:34.453Z,98787.78
2023-05-11T15:40:09.568Z,98774.16
2023-05-11T15:42:42.394Z,98775.28
2023-05-11T15:45:15.468Z,98773.84
2023-05-11T15:47:49.642Z,98771.59
2023-05-11T15:50:22.876Z,98774.28
2023-05-11T15:52:57.226Z,98773.50
2023-05-11T15:55:29.970Z,98773.31
2023-05-11T15:58:02.783Z,98782.25
2023-05-11T16:00:36.206Z,98777.72
2023-05-11T16:03:10.674Z,98777.13
2023-05-11T16:05:44.540Z,98778.75
2023-05-11T16:08:17.458Z,98775.66
2023-05-11T16:10:50.170Z,98777.00
2023-05-11T16:13:22.994Z,98775.53
2023-05-11T16:15:55.813Z,98774.75
2023-05-11T16:18:31.090Z,98780.75
2023-05-11T16:21:04.627Z,98780.94
2023-05-11T16:23:37.626Z,98776.44
2023-05-11T16:26:11.241Z,98776.19
2023-05-11T16:28:44.311Z,98774.56
2023-05-11T16:31:17.227Z,98770.06
2023-05-11T16:33:51.524Z,98769.31
2023-05-11T16:36:24.540Z,98765.78
2023-05-11T16:38:57.316Z,98764.53
2023-05-11T16:41:31.551Z,98766.25
2023-05-11T16:44:04.920Z,98770.03
2023-05-11T16:46:37.696Z,98766.00
2023-05-11T16:49:12.071Z,98770.22
2023-05-11T16:51:45.147Z,98774.34
2023-05-11T16:54:18.094Z,98768.09
2023-05-11T16:56:50.969Z,98768.00
2023-05-11T16:59:23.672Z,98763.13
2023-05-11T17:01:56.522Z,98765.25
2023-05-11T17:04:30.668Z,98759.94
2023-05-11T17:07:03.558Z,98758.38
2023-05-11T17:09:36.228Z,98749.38
2023-05-11T17:12:10.514Z,98754.84
2023-05-11T17:14:43.366Z,98756.28
2023-05-11T17:17:16.243Z,98753.75
2023-05-11T17:19:50.539Z,98747.47
2023-05-11T17:22:23.475Z,98751.31
2023-05-11T17:24:56.389Z,98747.81
2023-05-11T17:27:29.213Z,98748.00
2023-05-11T17:30:01.934Z,98747.75
2023-05-11T17:32:35.258Z,98742.53
2023-05-11T17:35:10.837Z,98736.00
2023-05-11T17:37:43.588Z,98735.69
2023-05-11T17:40:16.776Z,98734.06
2023-05-11T17:42:49.616Z,98739.09
2023-05-11T17:45:22.857Z,98735.69
2023-05-11T17:47:55.947Z,98744.22
2023-05-11T17:50:30.232Z,98747.22
2023-05-11T17:53:03.360Z,98742.75
2023-05-11T17:55:40.814Z,98742.03
2023-05-11T17:58:13.653Z,98749.84
2023-05-11T18:00:48.969Z,98748.66
2023-05-11T18:03:22.347Z,98740.22
2023-05-11T18:05:56.883Z,98738.16
2023-05-11T18:08:29.812Z,98741.94
2023-05-11T18:11:02.687Z,98749.03
2023-05-11T18:13:36.749Z,98745.56
2023-05-11T18:16:09.954Z,98737.19
2023-05-11T18:18:43.474Z,98745.16
2023-05-11T18:21:18.586Z,98742.50
2023-05-11T18:23:51.522Z,98744.63
2023-05-11T18:26:26.366Z,98739.84
2023-05-11T18:29:00.351Z,98745.84
2023-05-11T18:31:33.320Z,98754.44
2023-05-11T18:34:06.042Z,98754.34
2023-05-11T18:36:41.770Z,98755.50
2023-05-11T18:39:16.132Z,98754.34
2023-05-11T18:41:49.509Z,98759.38
2023-05-11T18:44:24.801Z,98754.22
2023-05-11T18:46:58.241Z,98749.81
2023-05-11T18:49:32.182Z,98755.66
2023-05-11T18:52:07.132Z,98753.31
2023-05-11T18:54:40.488Z,98757.81
2023-05-11T18:57:28.250Z,98757.06
2023-05-11T19:00:03.874Z,98766.56
2023-05-11T19:02:37.172Z,98766.19
2023-05-11T19:05:11.491Z,98778.69
2023-05-11T19:07:53.510Z,98781.41
2023-05-11T19:10:26.884Z,98779.97
2023-05-11T19:13:03.504Z,98779.66
2023-05-11T19:15:39.419Z,98783.81
2023-05-11T19:18:12.972Z,98779.88
2023-05-11T19:20:48.791Z,98783.69
2023-05-11T19:23:28.161Z,98786.94
2023-05-11T19:26:03.959Z,98793.00
2023-05-11T19:28:40.427Z,98792.44
2023-05-11T19:31:17.435Z,98799.81
2023-05-11T19:33:55.817Z,98797.16
2023-05-11T19:36:40.081Z,98796.66
2023-05-11T19:39:28.189Z,98797.13
2023-05-11T19:42:21.334Z,98796.81
2023-05-11T19:45:00.493Z,98803.88
2023-05-11T19:47:34.008Z,98799.06
2023-05-11T19:50:08.960Z,98801.69
2023-05-11T19:52:42.750Z,98803.41
2023-05-11T19:55:21.492Z,98812.94
2023-05-11T19:57:55.356Z,98806.69
2023-05-11T20:00:29.337Z,98809.25
2023-05-11T20:03:17.638Z,98812.03
2023-05-11T20:05:53.641Z,98814.72
2023-05-11T20:08:26.857Z,98814.00
2023-05-11T20:11:01.754Z,98810.91
2023-05-11T20:13:35.656Z,98821.63
2023-05-11T20:16:08.919Z,98816.50
2023-05-11T20:18:42.123Z,98820.31
2023-05-11T20:21:15.731Z,98828.28
2023-05-11T20:23:49.788Z,98828.38
2023-05-11T20:26:24.309Z,98820.75
2023-05-11T20:28:57.455Z,98816.06
2023-05-11T20:31:32.736Z,98813.72
2023-05-11T20:34:07.297Z,98818.09
2023-05-11T20:36:40.547Z,98814.75
2023-05-11T20:39:14.147Z,98813.16
2023-05-11T20:41:50.315Z,98817.31
2023-05-11T20:44:30.113Z,98821.88
2023-05-11T20:47:04.019Z,98825.25
2023-05-11T20:49:39.331Z,98822.94
2023-05-11T20:52:13.852Z,98821.66
2023-05-11T20:54:50.064Z,98821.25
2023-05-11T20:57:27.809Z,98821.56
2023-05-11T21:00:04.524Z,98817.19
2023-05-11T21:02:38.775Z,98826.78
2023-05-11T21:05:12.633Z,98832.72
2023-05-11T21:07:47.038Z,98817.41
2023-05-11T21:10:21.291Z,98823.78
2023-05-11T21:13:02.447Z,98830.91
2023-05-11T21:15:36.350Z,98827.72
2023-05-11T21:18:10.060Z,98835.94
2023-05-11T21:20:43.864Z,98835.22
2023-05-11T21:23:17.342Z,98841.00
2023-05-11T21:25:54.130Z,98837.44
2023-05-11T21:28:34.699Z,98829.22
2023-05-11T21:31:08.316Z,98840.56
2023-05-11T21:33:41.660Z,98851.31
2023-05-11T21:36:15.000Z,98852.94
2023-05-11T21:38:49.136Z,98849.94
2023-05-11T21:41:22.679Z,98853.41
2023-05-11T21:43:57.734Z,98858.34
2023-05-11T21:46:31.711Z,98856.75
2023-05-11T21:49:05.082Z,98864.34
2023-05-11T21:51:38.441Z,98865.06
2023-05-11T21:54:12.149Z,98873.56
2023-05-11T21:56:45.487Z,98880.19
2023-05-11T21:59:20.112Z,98869.09
2023-05-11T22:01:53.754Z,98864.59
2023-05-11T22:04:27.580Z,98871.13
2023-05-11T22:07:02.170Z,98871.06
2023-05-11T22:09:36.487Z,98862.16
2023-05-11T22:12:10.804Z,98865.66
2023-05-11T22:14:46.276Z,98867.28
2023-05-11T22:17:19.456Z,98869.91
2023-05-11T22:19:52.587Z,98864.97
2023-05-11T22:22:26.355Z,98865.19
2023-05-11T22:24:59.582Z,98857.84
2023-05-11T22:27:32.998Z,98863.78
2023-05-11T22:30:09.465Z,98871.25
2023-05-11T22:32:46.030Z,98855.81
2023-05-11T22:35:19.552Z,98868.63
2023-05-11T22:37:53.186Z,98862.28
2023-05-11T22:40:26.482Z,98868.53
2023-05-11T22:42:59.767Z,98866.84
2023-05-11T22:45:36.780Z,98869.09
2023-05-11T22:48:10.329Z,98865.13
2023-05-11T22:50:46.726Z,98867.78
2023-05-11T22:53:20.963Z,98866.13
2023-05-11T22:55:54.172Z,98864.81
2023-05-11T22:58:27.169Z,98858.44
2023-05-11T23:01:01.957Z,98861.69
2023-05-11T23:03:35.217Z,98862.66
2023-05-11T23:06:08.492Z,98863.50
2023-05-11T23:08:41.493Z,98870.41
2023-05-11T23:11:14.496Z,98863.72
2023-05-11T23:13:47.585Z,98862.94
2023-05-11T23:16:22.368Z,98859.34
2023-05-11T23:18:56.236Z,98863.97
2023-05-11T23:21:29.234Z,98870.75
2023-05-11T23:24:02.767Z,98867.84
2023-05-11T23:26:36.953Z,98862.03
2023-05-11T23:29:10.408Z,98863.03
2023-05-11T23:31:45.023Z,98869.88
2023-05-11T23:34:18.263Z,98871.19
2023-05-11T23:36:51.390Z,98872.59
2023-05-11T23:39:24.641Z,98872.25
2023-05-11T23:41:57.964Z,98872.72
2023-05-11T23:44:31.084Z,98873.13
2023-05-11T23:47:06.082Z,98877.38
2023-05-11T23:49:39.082Z,98871.56
2023-05-11T23:52:12.292Z,98865.50
2023-05-11T23:54:45.527Z,98867.75
2023-05-11T23:57:18.506Z,98874.31
2023-05-11T23:59:51.711Z,98869.97
